sensor_id;sensor_type;location;lat;lon;timestamp;temperature;humidity
52481;DHT22;38393;52.404;13.532;2023-11-21T00:01:06;8.70;99.90
52481;DHT22;38393;52.404;13.532;2023-11-21T00:03:34;8.70;99.90
52481;DHT22;38393;52.404;13.532;2023-11-21T00:06:00;8.80;99.90
52481;DHT22;38393;52.404;13.532;2023-11-21T00:08:26;8.70;99.90
52481;DHT22;38393;52.404;13.532;2023-11-21T00:10:52;8.70;99.90
52481;DHT22;38393;52.404;13.532;2023-11-21T00:13:18;8.80;99.90
52481;DHT22;38393;52.404;13.532;2023-11-21T00:15:43;8.80;99.90
52481;DHT22;38393;52.404;13.532;2023-11-21T00:18:09;8.80;99.90
52481;DHT22;38393;52.404;13.532;2023-11-21T00:20:35;8.90;99.90
52481;DHT22;38393;52.404;13.532;2023-11-21T00:23:00;9.10;99.90
52481;DHT22;38393;52.404;13.532;2023-11-21T00:25:27;8.80;99.90
52481;DHT22;38393;52.404;13.532;2023-11-21T00:27:53;8.70;99.90
52481;DHT22;38393;52.404;13.532;2023-11-21T00:30:19;8.70;99.90
52481;DHT22;38393;52.404;13.532;2023-11-21T00:32:46;8.50;99.90
52481;DHT22;38393;52.404;13.532;2023-11-21T00:35:11;8.30;99.90
52481;DHT22;38393;52.404;13.532;2023-11-21T00:37:37;8.20;99.90
52481;DHT22;38393;52.404;13.532;2023-11-21T00:40:04;8.20;99.90
52481;DHT22;38393;52.404;13.532;2023-11-21T00:42:30;8.00;99.90
52481;DHT22;38393;52.404;13.532;2023-11-21T00:44:59;7.90;99.90
52481;DHT22;38393;52.404;13.532;2023-11-21T00:47:24;7.80;99.90
52481;DHT22;38393;52.404;13.532;2023-11-21T00:49:50;7.70;99.90
52481;DHT22;38393;52.404;13.532;2023-11-21T00:52:15;7.70;99.90
52481;DHT22;38393;52.404;13.532;2023-11-21T00:54:41;7.60;99.90
52481;DHT22;38393;52.404;13.532;2023-11-21T00:57:07;7.60;99.90
52481;DHT22;38393;52.404;13.532;2023-11-21T00:59:34;7.60;99.90
52481;DHT22;38393;52.404;13.532;2023-11-21T01:02:00;7.60;99.90
52481;DHT22;38393;52.404;13.532;2023-11-21T01:04:26;7.60;99.90
52481;DHT22;38393;52.404;13.532;2023-11-21T01:06:52;7.50;99.90
52481;DHT22;38393;52.404;13.532;2023-11-21T01:09:17;7.60;99.90
52481;DHT22;38393;52.404;13.532;2023-11-21T01:11:44;7.50;99.90
52481;DHT22;38393;52.404;13.532;2023-11-21T01:14:09;7.50;99.90
52481;DHT22;38393;52.404;13.532;2023-11-21T01:16:36;7.40;99.90
52481;DHT22;38393;52.404;13.532;2023-11-21T01:19:01;7.40;99.90
52481;DHT22;38393;52.404;13.532;2023-11-21T01:21:27;7.30;99.90
52481;DHT22;38393;52.404;13.532;2023-11-21T01:23:53;7.30;99.90
52481;DHT22;38393;52.404;13.532;2023-11-21T01:26:20;7.30;99.90
52481;DHT22;38393;52.404;13.532;2023-11-21T01:28:46;7.20;99.90
52481;DHT22;38393;52.404;13.532;2023-11-21T01:31:17;7.10;99.90
52481;DHT22;38393;52.404;13.532;2023-11-21T01:33:42;7.10;99.90
52481;DHT22;38393;52.404;13.532;2023-11-21T01:36:08;7.10;99.90
52481;DHT22;38393;52.404;13.532;2023-11-21T01:38:34;7.10;99.90
52481;DHT22;38393;52.404;13.532;2023-11-21T01:41:00;7.10;99.90
52481;DHT22;38393;52.404;13.532;2023-11-21T01:43:27;7.00;99.90
52481;DHT22;38393;52.404;13.532;2023-11-21T01:45:54;6.90;99.90
52481;DHT22;38393;52.404;13.532;2023-11-21T01:48:22;7.00;99.90
52481;DHT22;38393;52.404;13.532;2023-11-21T01:50:48;7.00;99.90
52481;DHT22;38393;52.404;13.532;2023-11-21T01:53:14;6.90;99.90
52481;DHT22;38393;52.404;13.532;2023-11-21T01:55:43;6.80;99.90
52481;DHT22;38393;52.404;13.532;2023-11-21T01:58:10;6.80;99.90
52481;DHT22;38393;52.404;13.532;2023-11-21T02:00:37;6.80;99.90
52481;DHT22;38393;52.404;13.532;2023-11-21T02:03:03;6.70;99.90
52481;DHT22;38393;52.404;13.532;2023-11-21T02:05:29;6.70;99.90
52481;DHT22;38393;52.404;13.532;2023-11-21T02:07:54;6.70;99.90
52481;DHT22;38393;52.404;13.532;2023-11-21T02:10:21;6.60;99.90
52481;DHT22;38393;52.404;13.532;2023-11-21T02:12:49;6.70;99.90
52481;DHT22;38393;52.404;13.532;2023-11-21T02:15:18;6.60;99.90
52481;DHT22;38393;52.404;13.532;2023-11-21T02:17:47;6.50;99.90
52481;DHT22;38393;52.404;13.532;2023-11-21T02:20:21;6.50;99.90
52481;DHT22;38393;52.404;13.532;2023-11-21T02:22:56;6.40;99.90
52481;DHT22;38393;52.404;13.532;2023-11-21T02:25:25;6.40;99.90
52481;DHT22;38393;52.404;13.532;2023-11-21T02:27:53;6.40;99.90
52481;DHT22;38393;52.404;13.532;2023-11-21T02:30:20;6.30;99.90
52481;DHT22;38393;52.404;13.532;2023-11-21T02:32:47;6.30;99.90
52481;DHT22;38393;52.404;13.532;2023-11-21T02:35:13;6.30;99.90
52481;DHT22;38393;52.404;13.532;2023-11-21T02:37:39;6.20;99.90
52481;DHT22;38393;52.404;13.532;2023-11-21T02:40:07;6.10;99.90
52481;DHT22;38393;52.404;13.532;2023-11-21T02:42:35;6.00;99.90
52481;DHT22;38393;52.404;13.532;2023-11-21T02:45:00;6.10;99.90
52481;DHT22;38393;52.404;13.532;2023-11-21T02:47:26;6.00;99.90
52481;DHT22;38393;52.404;13.532;2023-11-21T02:49:51;5.90;99.90
52481;DHT22;38393;52.404;13.532;2023-11-21T02:52:18;5.90;99.90
52481;DHT22;38393;52.404;13.532;2023-11-21T02:54:44;5.90;99.90
52481;DHT22;38393;52.404;13.532;2023-11-21T02:57:10;5.90;99.90
52481;DHT22;38393;52.404;13.532;2023-11-21T02:59:35;6.00;99.90
52481;DHT22;38393;52.404;13.532;2023-11-21T03:02:01;5.90;99.90
52481;DHT22;38393;52.404;13.532;2023-11-21T03:04:26;5.90;99.90
52481;DHT22;38393;52.404;13.532;2023-11-21T03:06:51;5.90;99.90
52481;DHT22;38393;52.404;13.532;2023-11-21T03:09:17;5.90;99.90
52481;DHT22;38393;52.404;13.532;2023-11-21T03:11:42;5.90;99.90
52481;DHT22;38393;52.404;13.532;2023-11-21T03:14:08;6.00;99.90
52481;DHT22;38393;52.404;13.532;2023-11-21T03:16:33;5.90;99.90
52481;DHT22;38393;52.404;13.532;2023-11-21T03:18:59;5.90;99.90
52481;DHT22;38393;52.404;13.532;2023-11-21T03:21:25;5.90;99.90
52481;DHT22;38393;52.404;13.532;2023-11-21T03:23:51;5.90;99.90
52481;DHT22;38393;52.404;13.532;2023-11-21T03:26:17;5.90;99.90
52481;DHT22;38393;52.404;13.532;2023-11-21T03:28:42;5.80;99.90
52481;DHT22;38393;52.404;13.532;2023-11-21T03:31:08;5.90;99.90
52481;DHT22;38393;52.404;13.532;2023-11-21T03:33:35;5.80;99.90
52481;DHT22;38393;52.404;13.532;2023-11-21T03:36:00;5.80;99.90
52481;DHT22;38393;52.404;13.532;2023-11-21T03:38:26;5.90;99.90
52481;DHT22;38393;52.404;13.532;2023-11-21T03:40:51;5.90;99.90
52481;DHT22;38393;52.404;13.532;2023-11-21T03:43:17;5.90;99.90
52481;DHT22;38393;52.404;13.532;2023-11-21T03:45:42;5.90;99.90
52481;DHT22;38393;52.404;13.532;2023-11-21T03:48:08;5.90;99.90
52481;DHT22;38393;52.404;13.532;2023-11-21T03:50:34;5.70;99.90
52481;DHT22;38393;52.404;13.532;2023-11-21T03:52:59;5.90;99.90
52481;DHT22;38393;52.404;13.532;2023-11-21T03:55:25;5.90;99.90
52481;DHT22;38393;52.404;13.532;2023-11-21T03:57:51;5.80;99.90
52481;DHT22;38393;52.404;13.532;2023-11-21T04:00:17;5.90;99.90
52481;DHT22;38393;52.404;13.532;2023-11-21T04:02:43;5.80;99.90
52481;DHT22;38393;52.404;13.532;2023-11-21T04:05:09;5.90;99.90
52481;DHT22;38393;52.404;13.532;2023-11-21T04:07:35;5.80;99.90
52481;DHT22;38393;52.404;13.532;2023-11-21T04:10:00;5.80;99.90
52481;DHT22;38393;52.404;13.532;2023-11-21T04:12:26;5.80;99.90
52481;DHT22;38393;52.404;13.532;2023-11-21T04:14:51;5.80;99.90
52481;DHT22;38393;52.404;13.532;2023-11-21T04:17:20;5.80;99.90
52481;DHT22;38393;52.404;13.532;2023-11-21T04:19:46;5.70;99.90
52481;DHT22;38393;52.404;13.532;2023-11-21T04:22:12;5.60;99.90
52481;DHT22;38393;52.404;13.532;2023-11-21T04:24:37;5.60;99.90
52481;DHT22;38393;52.404;13.532;2023-11-21T04:27:03;5.70;99.90
52481;DHT22;38393;52.404;13.532;2023-11-21T04:29:28;5.60;99.90
52481;DHT22;38393;52.404;13.532;2023-11-21T04:31:54;5.60;99.90
52481;DHT22;38393;52.404;13.532;2023-11-21T04:34:19;5.50;99.90
52481;DHT22;38393;52.404;13.532;2023-11-21T04:36:45;5.40;99.90
52481;DHT22;38393;52.404;13.532;2023-11-21T04:39:10;5.50;99.90
52481;DHT22;38393;52.404;13.532;2023-11-21T04:41:36;5.50;99.90
52481;DHT22;38393;52.404;13.532;2023-11-21T04:44:05;5.40;99.90
52481;DHT22;38393;52.404;13.532;2023-11-21T04:46:30;5.30;99.90
52481;DHT22;38393;52.404;13.532;2023-11-21T04:48:57;5.30;99.90
52481;DHT22;38393;52.404;13.532;2023-11-21T04:51:23;5.30;99.90
52481;DHT22;38393;52.404;13.532;2023-11-21T04:53:48;5.30;99.90
52481;DHT22;38393;52.404;13.532;2023-11-21T04:56:14;5.30;99.90
52481;DHT22;38393;52.404;13.532;2023-11-21T04:58:41;5.30;99.90
52481;DHT22;38393;52.404;13.532;2023-11-21T05:01:07;5.30;99.90
52481;DHT22;38393;52.404;13.532;2023-11-21T05:03:33;5.30;99.90
52481;DHT22;38393;52.404;13.532;2023-11-21T05:05:59;5.30;99.90
52481;DHT22;38393;52.404;13.532;2023-11-21T05:08:25;5.20;99.90
52481;DHT22;38393;52.404;13.532;2023-11-21T05:10:51;5.20;99.90
52481;DHT22;38393;52.404;13.532;2023-11-21T05:13:17;5.30;99.90
52481;DHT22;38393;52.404;13.532;2023-11-21T05:15:44;5.30;99.90
52481;DHT22;38393;52.404;13.532;2023-11-21T05:18:10;5.30;99.90
52481;DHT22;38393;52.404;13.532;2023-11-21T05:20:35;5.20;99.90
52481;DHT22;38393;52.404;13.532;2023-11-21T05:23:01;5.20;99.90
52481;DHT22;38393;52.404;13.532;2023-11-21T05:25:27;5.20;99.90
52481;DHT22;38393;52.404;13.532;2023-11-21T05:27:52;5.20;99.90
52481;DHT22;38393;52.404;13.532;2023-11-21T05:30:20;5.20;99.90
52481;DHT22;38393;52.404;13.532;2023-11-21T05:32:46;5.20;99.90
52481;DHT22;38393;52.404;13.532;2023-11-21T05:35:12;5.20;99.90
52481;DHT22;38393;52.404;13.532;2023-11-21T05:37:41;5.20;99.90
52481;DHT22;38393;52.404;13.532;2023-11-21T05:40:07;5.30;99.90
52481;DHT22;38393;52.404;13.532;2023-11-21T05:42:34;5.30;99.90
52481;DHT22;38393;52.404;13.532;2023-11-21T05:45:00;5.30;99.90
52481;DHT22;38393;52.404;13.532;2023-11-21T05:47:36;5.20;99.90
52481;DHT22;38393;52.404;13.532;2023-11-21T05:50:02;5.20;99.90
52481;DHT22;38393;52.404;13.532;2023-11-21T05:52:27;5.20;99.90
52481;DHT22;38393;52.404;13.532;2023-11-21T05:54:53;5.20;99.90
52481;DHT22;38393;52.404;13.532;2023-11-21T05:57:18;5.20;99.90
52481;DHT22;38393;52.404;13.532;2023-11-21T05:59:43;5.30;99.90
52481;DHT22;38393;52.404;13.532;2023-11-21T06:02:09;5.20;99.90
52481;DHT22;38393;52.404;13.532;2023-11-21T06:04:34;5.20;99.90
52481;DHT22;38393;52.404;13.532;2023-11-21T06:07:00;5.20;99.90
52481;DHT22;38393;52.404;13.532;2023-11-21T06:09:26;5.20;99.90
52481;DHT22;38393;52.404;13.532;2023-11-21T06:11:53;5.30;99.90
52481;DHT22;38393;52.404;13.532;2023-11-21T06:14:18;5.20;99.90
52481;DHT22;38393;52.404;13.532;2023-11-21T06:16:44;5.30;99.90
52481;DHT22;38393;52.404;13.532;2023-11-21T06:19:10;5.30;99.90
52481;DHT22;38393;52.404;13.532;2023-11-21T06:21:36;5.30;99.90
52481;DHT22;38393;52.404;13.532;2023-11-21T06:24:01;5.30;99.90
52481;DHT22;38393;52.404;13.532;2023-11-21T06:26:27;5.30;99.90
52481;DHT22;38393;52.404;13.532;2023-11-21T06:28:53;5.20;99.90
52481;DHT22;38393;52.404;13.532;2023-11-21T06:31:19;5.30;99.90
52481;DHT22;38393;52.404;13.532;2023-11-21T06:33:44;5.30;99.90
52481;DHT22;38393;52.404;13.532;2023-11-21T06:36:10;5.30;99.90
52481;DHT22;38393;52.404;13.532;2023-11-21T06:38:37;5.20;99.90
52481;DHT22;38393;52.404;13.532;2023-11-21T06:41:02;5.30;99.90
52481;DHT22;38393;52.404;13.532;2023-11-21T06:43:30;5.30;99.90
52481;DHT22;38393;52.404;13.532;2023-11-21T06:45:57;5.30;99.90
52481;DHT22;38393;52.404;13.532;2023-11-21T06:48:22;5.30;99.90
52481;DHT22;38393;52.404;13.532;2023-11-21T06:50:47;5.30;99.90
52481;DHT22;38393;52.404;13.532;2023-11-21T06:53:13;5.30;99.90
52481;DHT22;38393;52.404;13.532;2023-11-21T06:55:38;5.20;99.90
52481;DHT22;38393;52.404;13.532;2023-11-21T06:58:04;5.20;99.90
52481;DHT22;38393;52.404;13.532;2023-11-21T07:00:30;5.20;99.90
52481;DHT22;38393;52.404;13.532;2023-11-21T07:02:56;5.20;99.90
52481;DHT22;38393;52.404;13.532;2023-11-21T07:05:22;5.30;99.90
52481;DHT22;38393;52.404;13.532;2023-11-21T07:07:49;5.20;99.90
52481;DHT22;38393;52.404;13.532;2023-11-21T07:10:15;5.20;99.90
52481;DHT22;38393;52.404;13.532;2023-11-21T07:12:40;5.20;99.90
52481;DHT22;38393;52.404;13.532;2023-11-21T07:15:07;5.30;99.90
52481;DHT22;38393;52.404;13.532;2023-11-21T07:17:35;5.30;99.90
52481;DHT22;38393;52.404;13.532;2023-11-21T07:20:01;5.30;99.90
52481;DHT22;38393;52.404;13.532;2023-11-21T07:22:26;5.20;99.90
52481;DHT22;38393;52.404;13.532;2023-11-21T07:24:52;5.30;99.90
52481;DHT22;38393;52.404;13.532;2023-11-21T07:27:17;5.20;99.90
52481;DHT22;38393;52.404;13.532;2023-11-21T07:29:43;5.20;99.90
52481;DHT22;38393;52.404;13.532;2023-11-21T07:32:09;5.20;99.90
52481;DHT22;38393;52.404;13.532;2023-11-21T07:34:38;5.20;99.90
52481;DHT22;38393;52.404;13.532;2023-11-21T07:37:03;5.20;99.90
52481;DHT22;38393;52.404;13.532;2023-11-21T07:39:29;5.40;99.90
52481;DHT22;38393;52.404;13.532;2023-11-21T07:41:55;5.30;99.90
52481;DHT22;38393;52.404;13.532;2023-11-21T07:44:21;5.20;99.90
52481;DHT22;38393;52.404;13.532;2023-11-21T07:46:47;5.10;99.90
52481;DHT22;38393;52.404;13.532;2023-11-21T07:49:12;5.10;99.90
52481;DHT22;38393;52.404;13.532;2023-11-21T07:51:43;5.20;99.90
52481;DHT22;38393;52.404;13.532;2023-11-21T07:54:09;5.10;99.90
52481;DHT22;38393;52.404;13.532;2023-11-21T07:56:35;5.10;99.90
52481;DHT22;38393;52.404;13.532;2023-11-21T07:59:01;5.10;99.90
52481;DHT22;38393;52.404;13.532;2023-11-21T08:01:26;5.00;99.90
52481;DHT22;38393;52.404;13.532;2023-11-21T08:03:53;5.10;99.90
52481;DHT22;38393;52.404;13.532;2023-11-21T08:06:23;5.00;99.90
52481;DHT22;38393;52.404;13.532;2023-11-21T08:08:48;5.00;99.90
52481;DHT22;38393;52.404;13.532;2023-11-21T08:11:14;5.00;99.90
52481;DHT22;38393;52.404;13.532;2023-11-21T08:13:39;5.10;99.90
52481;DHT22;38393;52.404;13.532;2023-11-21T08:16:05;5.00;99.90
52481;DHT22;38393;52.404;13.532;2023-11-21T08:18:32;5.10;99.90
52481;DHT22;38393;52.404;13.532;2023-11-21T08:20:58;5.00;99.90
52481;DHT22;38393;52.404;13.532;2023-11-21T08:23:23;5.00;99.90
52481;DHT22;38393;52.404;13.532;2023-11-21T08:25:53;5.10;99.90
52481;DHT22;38393;52.404;13.532;2023-11-21T08:28:19;5.10;99.90
52481;DHT22;38393;52.404;13.532;2023-11-21T08:30:44;5.10;99.90
52481;DHT22;38393;52.404;13.532;2023-11-21T08:33:10;5.10;99.90
52481;DHT22;38393;52.404;13.532;2023-11-21T08:35:37;4.90;99.90
52481;DHT22;38393;52.404;13.532;2023-11-21T08:38:03;5.00;99.90
52481;DHT22;38393;52.404;13.532;2023-11-21T08:40:29;5.10;99.90
52481;DHT22;38393;52.404;13.532;2023-11-21T08:42:55;5.00;99.90
52481;DHT22;38393;52.404;13.532;2023-11-21T08:45:21;5.10;99.90
52481;DHT22;38393;52.404;13.532;2023-11-21T08:47:47;5.00;99.90
52481;DHT22;38393;52.404;13.532;2023-11-21T08:50:13;5.10;99.90
52481;DHT22;38393;52.404;13.532;2023-11-21T08:52:39;5.10;99.90
52481;DHT22;38393;52.404;13.532;2023-11-21T08:55:06;5.00;99.90
52481;DHT22;38393;52.404;13.532;2023-11-21T08:57:37;5.00;99.90
52481;DHT22;38393;52.404;13.532;2023-11-21T09:00:04;5.00;99.90
52481;DHT22;38393;52.404;13.532;2023-11-21T09:02:33;5.10;99.90
52481;DHT22;38393;52.404;13.532;2023-11-21T09:04:59;5.10;99.90
52481;DHT22;38393;52.404;13.532;2023-11-21T09:07:28;5.20;99.90
52481;DHT22;38393;52.404;13.532;2023-11-21T09:09:54;5.10;99.90
52481;DHT22;38393;52.404;13.532;2023-11-21T09:12:20;5.10;99.90
52481;DHT22;38393;52.404;13.532;2023-11-21T09:14:46;5.10;99.90
52481;DHT22;38393;52.404;13.532;2023-11-21T09:17:11;5.10;99.90
52481;DHT22;38393;52.404;13.532;2023-11-21T09:19:40;5.20;99.90
52481;DHT22;38393;52.404;13.532;2023-11-21T09:22:06;5.20;99.90
52481;DHT22;38393;52.404;13.532;2023-11-21T09:24:33;5.30;99.90
52481;DHT22;38393;52.404;13.532;2023-11-21T09:26:58;5.30;99.90
52481;DHT22;38393;52.404;13.532;2023-11-21T09:29:28;5.20;99.90
52481;DHT22;38393;52.404;13.532;2023-11-21T09:31:54;5.10;99.90
52481;DHT22;38393;52.404;13.532;2023-11-21T09:34:20;5.20;99.90
52481;DHT22;38393;52.404;13.532;2023-11-21T09:36:46;5.20;99.90
52481;DHT22;38393;52.404;13.532;2023-11-21T09:39:12;5.10;99.90
52481;DHT22;38393;52.404;13.532;2023-11-21T09:42:13;5.10;99.90
52481;DHT22;38393;52.404;13.532;2023-11-21T09:45:03;5.00;99.90
52481;DHT22;38393;52.404;13.532;2023-11-21T09:47:30;4.90;99.90
52481;DHT22;38393;52.404;13.532;2023-11-21T09:49:57;4.90;99.90
52481;DHT22;38393;52.404;13.532;2023-11-21T09:52:26;4.90;99.90
52481;DHT22;38393;52.404;13.532;2023-11-21T09:54:53;5.10;99.90
52481;DHT22;38393;52.404;13.532;2023-11-21T09:57:23;4.90;99.90
52481;DHT22;38393;52.404;13.532;2023-11-21T09:59:56;5.00;99.90
52481;DHT22;38393;52.404;13.532;2023-11-21T10:02:27;5.00;99.90
52481;DHT22;38393;52.404;13.532;2023-11-21T10:04:59;4.90;99.90
52481;DHT22;38393;52.404;13.532;2023-11-21T10:07:25;4.90;99.90
52481;DHT22;38393;52.404;13.532;2023-11-21T10:09:52;4.90;99.90
52481;DHT22;38393;52.404;13.532;2023-11-21T10:12:18;5.10;99.90
52481;DHT22;38393;52.404;13.532;2023-11-21T10:14:46;5.10;99.90
52481;DHT22;38393;52.404;13.532;2023-11-21T10:17:14;5.20;99.90
52481;DHT22;38393;52.404;13.532;2023-11-21T10:19:48;5.20;99.90
52481;DHT22;38393;52.404;13.532;2023-11-21T10:22:15;5.40;99.90
52481;DHT22;38393;52.404;13.532;2023-11-21T10:24:41;5.30;99.90
52481;DHT22;38393;52.404;13.532;2023-11-21T10:27:08;5.20;99.90
52481;DHT22;38393;52.404;13.532;2023-11-21T10:29:34;5.30;99.90
52481;DHT22;38393;52.404;13.532;2023-11-21T10:32:02;5.20;99.90
52481;DHT22;38393;52.404;13.532;2023-11-21T10:34:27;5.10;99.90
52481;DHT22;38393;52.404;13.532;2023-11-21T10:36:53;5.00;99.90
52481;DHT22;38393;52.404;13.532;2023-11-21T10:39:20;5.00;99.90
52481;DHT22;38393;52.404;13.532;2023-11-21T10:41:49;5.00;99.90
52481;DHT22;38393;52.404;13.532;2023-11-21T10:44:15;5.00;99.90
52481;DHT22;38393;52.404;13.532;2023-11-21T10:46:50;5.00;99.90
52481;DHT22;38393;52.404;13.532;2023-11-21T10:49:20;5.00;99.90
52481;DHT22;38393;52.404;13.532;2023-11-21T10:51:46;5.00;99.90
52481;DHT22;38393;52.404;13.532;2023-11-21T10:54:18;5.10;99.90
52481;DHT22;38393;52.404;13.532;2023-11-21T10:56:44;4.80;99.90
52481;DHT22;38393;52.404;13.532;2023-11-21T10:59:10;4.80;99.90
52481;DHT22;38393;52.404;13.532;2023-11-21T11:01:45;4.70;99.90
52481;DHT22;38393;52.404;13.532;2023-11-21T11:04:12;4.80;99.90
52481;DHT22;38393;52.404;13.532;2023-11-21T11:06:43;4.70;99.90
52481;DHT22;38393;52.404;13.532;2023-11-21T11:09:13;4.70;99.90
52481;DHT22;38393;52.404;13.532;2023-11-21T11:11:40;4.80;99.90
52481;DHT22;38393;52.404;13.532;2023-11-21T11:14:09;4.90;99.90
52481;DHT22;38393;52.404;13.532;2023-11-21T11:16:36;4.90;99.90
52481;DHT22;38393;52.404;13.532;2023-11-21T11:19:05;4.90;99.90
52481;DHT22;38393;52.404;13.532;2023-11-21T11:21:38;4.80;99.90
52481;DHT22;38393;52.404;13.532;2023-11-21T11:24:20;5.00;99.90
52481;DHT22;38393;52.404;13.532;2023-11-21T11:32:46;4.80;99.90
52481;DHT22;38393;52.404;13.532;2023-11-21T11:35:26;4.80;99.90
52481;DHT22;38393;52.404;13.532;2023-11-21T11:37:56;4.80;99.90
52481;DHT22;38393;52.404;13.532;2023-11-21T11:40:22;4.70;99.90
52481;DHT22;38393;52.404;13.532;2023-11-21T11:43:01;4.90;99.90
52481;DHT22;38393;52.404;13.532;2023-11-21T11:45:34;4.80;99.90
52481;DHT22;38393;52.404;13.532;2023-11-21T11:48:01;4.80;99.90
52481;DHT22;38393;52.404;13.532;2023-11-21T11:50:27;4.70;99.90
52481;DHT22;38393;52.404;13.532;2023-11-21T11:52:53;4.70;99.90
52481;DHT22;38393;52.404;13.532;2023-11-21T11:55:24;4.70;99.90
52481;DHT22;38393;52.404;13.532;2023-11-21T11:57:52;4.60;99.90
52481;DHT22;38393;52.404;13.532;2023-11-21T12:02:57;4.60;99.90
52481;DHT22;38393;52.404;13.532;2023-11-21T12:05:25;4.50;99.90
52481;DHT22;38393;52.404;13.532;2023-11-21T12:07:57;4.50;99.90
52481;DHT22;38393;52.404;13.532;2023-11-21T12:10:24;4.40;99.90
52481;DHT22;38393;52.404;13.532;2023-11-21T12:12:52;4.50;99.90
52481;DHT22;38393;52.404;13.532;2023-11-21T12:15:19;4.50;99.90
52481;DHT22;38393;52.404;13.532;2023-11-21T12:17:46;4.60;99.90
52481;DHT22;38393;52.404;13.532;2023-11-21T12:20:13;4.70;99.90
52481;DHT22;38393;52.404;13.532;2023-11-21T12:22:46;4.70;99.90
52481;DHT22;38393;52.404;13.532;2023-11-21T12:25:22;4.50;99.90
52481;DHT22;38393;52.404;13.532;2023-11-21T12:27:49;4.50;99.90
52481;DHT22;38393;52.404;13.532;2023-11-21T12:30:19;4.50;99.90
52481;DHT22;38393;52.404;13.532;2023-11-21T12:32:54;4.50;99.90
52481;DHT22;38393;52.404;13.532;2023-11-21T12:35:22;4.60;99.90
52481;DHT22;38393;52.404;13.532;2023-11-21T12:37:48;4.70;99.90
52481;DHT22;38393;52.404;13.532;2023-11-21T12:40:15;4.60;99.90
52481;DHT22;38393;52.404;13.532;2023-11-21T12:42:41;4.60;99.90
52481;DHT22;38393;52.404;13.532;2023-11-21T12:47:46;4.60;99.90
52481;DHT22;38393;52.404;13.532;2023-11-21T12:50:12;4.60;99.90
52481;DHT22;38393;52.404;13.532;2023-11-21T12:52:42;4.50;99.90
52481;DHT22;38393;52.404;13.532;2023-11-21T12:55:13;4.40;99.90
52481;DHT22;38393;52.404;13.532;2023-11-21T12:57:42;4.40;99.90
52481;DHT22;38393;52.404;13.532;2023-11-21T13:00:09;4.40;99.90
52481;DHT22;38393;52.404;13.532;2023-11-21T13:02:40;4.50;99.90
52481;DHT22;38393;52.404;13.532;2023-11-21T13:05:07;4.50;99.90
52481;DHT22;38393;52.404;13.532;2023-11-21T13:07:43;4.30;99.90
52481;DHT22;38393;52.404;13.532;2023-11-21T13:10:13;4.30;99.90
52481;DHT22;38393;52.404;13.532;2023-11-21T13:12:45;4.30;99.90
52481;DHT22;38393;52.404;13.532;2023-11-21T13:15:14;4.30;99.90
52481;DHT22;38393;52.404;13.532;2023-11-21T13:17:43;4.30;99.90
52481;DHT22;38393;52.404;13.532;2023-11-21T13:20:13;4.20;99.90
52481;DHT22;38393;52.404;13.532;2023-11-21T13:22:52;4.30;99.90
52481;DHT22;38393;52.404;13.532;2023-11-21T13:25:25;4.40;99.90
52481;DHT22;38393;52.404;13.532;2023-11-21T13:27:54;4.30;99.90
52481;DHT22;38393;52.404;13.532;2023-11-21T13:30:20;4.30;99.90
52481;DHT22;38393;52.404;13.532;2023-11-21T13:32:53;4.30;99.90
52481;DHT22;38393;52.404;13.532;2023-11-21T13:35:23;4.30;99.90
52481;DHT22;38393;52.404;13.532;2023-11-21T13:37:56;4.20;99.90
52481;DHT22;38393;52.404;13.532;2023-11-21T13:40:25;3.90;99.90
52481;DHT22;38393;52.404;13.532;2023-11-21T13:42:55;4.00;99.90
52481;DHT22;38393;52.404;13.532;2023-11-21T13:45:24;4.10;99.90
52481;DHT22;38393;52.404;13.532;2023-11-21T13:47:53;4.20;99.90
52481;DHT22;38393;52.404;13.532;2023-11-21T13:50:23;4.20;99.90
52481;DHT22;38393;52.404;13.532;2023-11-21T13:52:54;4.20;99.90
52481;DHT22;38393;52.404;13.532;2023-11-21T13:55:20;4.00;99.90
52481;DHT22;38393;52.404;13.532;2023-11-21T13:57:47;4.10;99.90
52481;DHT22;38393;52.404;13.532;2023-11-21T14:00:17;4.00;99.90
52481;DHT22;38393;52.404;13.532;2023-11-21T14:03:07;3.90;99.90
52481;DHT22;38393;52.404;13.532;2023-11-21T14:05:43;4.00;99.90
52481;DHT22;38393;52.404;13.532;2023-11-21T14:08:09;3.90;99.90
52481;DHT22;38393;52.404;13.532;2023-11-21T14:10:37;3.80;99.90
52481;DHT22;38393;52.404;13.532;2023-11-21T14:13:09;4.10;99.90
52481;DHT22;38393;52.404;13.532;2023-11-21T14:15:36;3.90;99.90
52481;DHT22;38393;52.404;13.532;2023-11-21T14:18:07;3.80;99.90
52481;DHT22;38393;52.404;13.532;2023-11-21T14:20:36;3.70;99.90
52481;DHT22;38393;52.404;13.532;2023-11-21T14:23:03;3.70;99.90
52481;DHT22;38393;52.404;13.532;2023-11-21T14:25:29;3.60;99.90
52481;DHT22;38393;52.404;13.532;2023-11-21T14:27:55;3.50;99.90
52481;DHT22;38393;52.404;13.532;2023-11-21T14:30:21;3.50;99.90
52481;DHT22;38393;52.404;13.532;2023-11-21T14:32:48;3.50;99.90
52481;DHT22;38393;52.404;13.532;2023-11-21T14:35:15;3.50;99.90
52481;DHT22;38393;52.404;13.532;2023-11-21T14:37:40;3.50;99.90
52481;DHT22;38393;52.404;13.532;2023-11-21T14:40:06;3.50;99.90
52481;DHT22;38393;52.404;13.532;2023-11-21T14:42:33;3.40;99.90
52481;DHT22;38393;52.404;13.532;2023-11-21T14:44:59;3.40;99.90
52481;DHT22;38393;52.404;13.532;2023-11-21T14:47:28;3.50;99.90
52481;DHT22;38393;52.404;13.532;2023-11-21T14:49:53;3.40;99.90
52481;DHT22;38393;52.404;13.532;2023-11-21T14:52:19;3.40;99.90
52481;DHT22;38393;52.404;13.532;2023-11-21T14:54:58;3.40;99.90
52481;DHT22;38393;52.404;13.532;2023-11-21T14:57:42;3.30;99.90
52481;DHT22;38393;52.404;13.532;2023-11-21T15:00:15;3.40;99.90
52481;DHT22;38393;52.404;13.532;2023-11-21T15:03:04;3.30;99.90
52481;DHT22;38393;52.404;13.532;2023-11-21T15:05:30;3.30;99.90
52481;DHT22;38393;52.404;13.532;2023-11-21T15:07:56;3.20;99.90
52481;DHT22;38393;52.404;13.532;2023-11-21T15:10:33;3.20;99.90
52481;DHT22;38393;52.404;13.532;2023-11-21T15:13:13;3.20;99.90
52481;DHT22;38393;52.404;13.532;2023-11-21T15:15:40;3.20;99.90
52481;DHT22;38393;52.404;13.532;2023-11-21T15:18:06;3.20;99.90
52481;DHT22;38393;52.404;13.532;2023-11-21T15:20:32;3.20;99.90
52481;DHT22;38393;52.404;13.532;2023-11-21T15:22:58;3.20;99.90
52481;DHT22;38393;52.404;13.532;2023-11-21T15:25:23;3.20;99.90
52481;DHT22;38393;52.404;13.532;2023-11-21T15:27:49;3.30;99.90
52481;DHT22;38393;52.404;13.532;2023-11-21T15:30:15;3.10;99.90
52481;DHT22;38393;52.404;13.532;2023-11-21T15:32:45;3.10;99.90
52481;DHT22;38393;52.404;13.532;2023-11-21T15:35:10;3.00;99.90
52481;DHT22;38393;52.404;13.532;2023-11-21T15:37:39;3.10;99.90
52481;DHT22;38393;52.404;13.532;2023-11-21T15:40:05;3.00;99.90
52481;DHT22;38393;52.404;13.532;2023-11-21T15:42:31;2.90;99.90